Mill River, Massachusetts
Current Conditions -  °F | °C
As of 10:54 AM on Monday 26 Jan 2015 (Local Time) from KPSF Reporting Station
Overcast Overcast  
Wind Chill:   Ceiling: 6000
Heat Index: 17°   Visibility: 10mi
Dew Point: -3°   Wind: 10mph
Humidity: 41%   Direction: 40°NE
Pressure: 29.99"   Gusts: NA
Location:  42.11°N, 73.26°W
Report Text: KPSF 261554Z AUTO 04009KT 10SM OVC060 M08/M19 A2999 RMK AO2 SLP182 T10831194
Loading
Personal Weather Stations






























Interactive Weather Map New forecast layout! Learn more

10-Day Weather Forecast

Advertisements
Track Severe Weather on mobile